createdAt,value
2018-09-10T00:00:27.539Z,16.66
2018-09-10T00:02:56.070Z,16.61
2018-09-10T00:05:24.628Z,16.58
2018-09-10T00:07:53.900Z,16.53
2018-09-10T00:10:22.559Z,16.55
2018-09-10T00:12:51.131Z,16.57
2018-09-10T00:15:19.808Z,16.54
2018-09-10T00:17:48.372Z,16.49
2018-09-10T00:20:16.951Z,16.44
2018-09-10T00:22:45.632Z,16.44
2018-09-10T00:25:14.195Z,16.47
2018-09-10T00:27:42.745Z,16.50
2018-09-10T00:30:11.667Z,16.50
2018-09-10T00:32:40.214Z,16.49
2018-09-10T00:35:08.787Z,16.48
2018-09-10T00:37:37.627Z,16.48
2018-09-10T00:40:06.218Z,16.47
2018-09-10T00:42:34.842Z,16.46
2018-09-10T00:45:03.635Z,16.44
2018-09-10T00:47:32.227Z,16.34
2018-09-10T00:50:00.788Z,16.33
2018-09-10T00:52:29.368Z,16.31
2018-09-10T00:54:57.911Z,16.23
2018-09-10T00:57:26.465Z,16.17
2018-09-10T00:59:55.120Z,16.14
2018-09-10T01:02:23.683Z,16.10
2018-09-10T01:04:52.242Z,16.05
2018-09-10T01:07:20.920Z,15.99
2018-09-10T01:09:49.459Z,15.96
2018-09-10T01:12:18.028Z,15.90
2018-09-10T01:14:46.611Z,15.90
2018-09-10T01:17:15.163Z,15.87
2018-09-10T01:19:43.763Z,15.84
2018-09-10T01:22:12.424Z,15.84
2018-09-10T01:24:40.972Z,15.84
2018-09-10T01:27:09.537Z,15.80
2018-09-10T01:29:38.419Z,15.81
2018-09-10T01:32:06.970Z,15.77
2018-09-10T01:34:40.783Z,15.68
2018-09-10T01:37:09.335Z,15.67
2018-09-10T01:39:37.879Z,15.64
2018-09-10T01:42:06.860Z,15.63
2018-09-10T01:44:35.392Z,15.57
2018-09-10T01:47:03.948Z,15.55
2018-09-10T01:49:32.632Z,15.55
2018-09-10T01:52:01.187Z,15.58
2018-09-10T01:54:29.739Z,15.62
2018-09-10T01:56:58.307Z,15.67
2018-09-10T01:59:26.860Z,15.66
2018-09-10T02:01:55.412Z,15.68
2018-09-10T02:04:23.995Z,15.72
2018-09-10T02:06:52.567Z,15.73
2018-09-10T02:09:21.127Z,15.71
2018-09-10T02:11:49.807Z,15.72
2018-09-10T02:14:18.432Z,15.75
2018-09-10T02:16:46.999Z,15.72
2018-09-10T02:19:15.576Z,15.70
2018-09-10T02:21:44.119Z,15.67
2018-09-10T02:24:12.739Z,15.63
2018-09-10T02:26:41.701Z,15.56
2018-09-10T02:29:10.306Z,15.52
2018-09-10T02:31:38.887Z,15.49
2018-09-10T02:34:07.475Z,15.48
2018-09-10T02:36:36.027Z,15.47
2018-09-10T02:39:05.876Z,15.46
2018-09-10T02:41:39.203Z,15.46
2018-09-10T02:44:07.772Z,15.41
2018-09-10T02:46:36.340Z,15.43
2018-09-10T02:49:05.088Z,15.41
2018-09-10T02:51:33.679Z,15.41
2018-09-10T02:54:02.228Z,15.41
2018-09-10T02:56:30.861Z,15.42
2018-09-10T02:58:59.839Z,15.40
2018-09-10T03:01:28.423Z,15.43
2018-09-10T03:03:57.208Z,15.37
2018-09-10T03:06:25.819Z,15.33
2018-09-10T03:08:54.362Z,15.26
2018-09-10T03:11:22.937Z,15.22
2018-09-10T03:13:51.551Z,15.16
2018-09-10T03:16:20.103Z,15.13
2018-09-10T03:18:48.739Z,15.10
2018-09-10T03:21:17.299Z,15.07
2018-09-10T03:23:45.869Z,15.03
2018-09-10T03:26:14.451Z,15.00
2018-09-10T03:28:43.016Z,14.96
2018-09-10T03:31:11.568Z,14.94
2018-09-10T03:33:40.262Z,14.97
2018-09-10T03:36:08.759Z,14.95
2018-09-10T03:38:37.312Z,14.92
2018-09-10T03:41:05.972Z,14.94
2018-09-10T03:43:34.528Z,14.94
2018-09-10T03:46:03.079Z,14.88
2018-09-10T03:48:31.656Z,14.83
2018-09-10T03:51:00.223Z,14.77
2018-09-10T03:53:28.776Z,14.76
2018-09-10T03:55:57.372Z,14.92
2018-09-10T03:58:25.923Z,14.90
2018-09-10T04:00:54.483Z,14.83
2018-09-10T04:03:23.062Z,14.85
2018-09-10T04:05:51.619Z,14.80
2018-09-10T04:08:20.163Z,14.81
2018-09-10T04:10:48.743Z,14.82
2018-09-10T04:13:17.336Z,14.82
2018-09-10T04:15:45.887Z,14.84
2018-09-10T04:18:14.943Z,14.80
2018-09-10T04:20:43.488Z,14.81
2018-09-10T04:23:12.055Z,14.80
2018-09-10T04:25:40.631Z,14.77
2018-09-10T04:28:09.175Z,14.81
2018-09-10T04:30:37.732Z,14.84
2018-09-10T04:33:06.388Z,14.79
2018-09-10T04:35:34.939Z,14.85
2018-09-10T04:38:03.492Z,14.92
2018-09-10T04:40:32.131Z,14.85
2018-09-10T04:43:00.684Z,14.89
2018-09-10T04:45:29.236Z,14.87
2018-09-10T04:47:57.900Z,14.86
2018-09-10T04:50:26.449Z,14.86
2018-09-10T04:52:55.024Z,14.86
2018-09-10T04:55:23.672Z,14.85
2018-09-10T04:57:52.335Z,14.83
2018-09-10T05:00:20.900Z,14.79
2018-09-10T05:02:49.568Z,14.80
2018-09-10T05:05:18.137Z,14.80
2018-09-10T05:07:46.718Z,14.84
2018-09-10T05:10:15.392Z,14.86
2018-09-10T05:12:43.944Z,14.85
2018-09-10T05:15:12.494Z,14.87
2018-09-10T05:17:41.367Z,14.90
2018-09-10T05:20:09.924Z,14.91
2018-09-10T05:22:38.682Z,14.90
2018-09-10T05:25:07.641Z,14.96
2018-09-10T05:27:36.183Z,15.02
2018-09-10T05:30:04.805Z,15.05
2018-09-10T05:32:33.692Z,15.13
2018-09-10T05:35:02.230Z,15.23
2018-09-10T05:37:30.791Z,15.35
2018-09-10T05:39:59.647Z,15.47
2018-09-10T05:42:28.211Z,15.59
2018-09-10T05:44:56.770Z,15.75
2018-09-10T05:47:25.399Z,15.89
2018-09-10T05:49:53.992Z,16.04
2018-09-10T05:52:22.539Z,16.14
2018-09-10T05:54:51.131Z,16.33
2018-09-10T05:57:19.680Z,16.52
2018-09-10T05:59:48.252Z,16.67
2018-09-10T06:02:16.945Z,16.93
2018-09-10T06:04:45.603Z,17.13
2018-09-10T06:07:14.155Z,17.36
2018-09-10T06:09:43.177Z,17.59
2018-09-10T06:12:11.731Z,17.80
2018-09-10T06:14:40.284Z,18.01
2018-09-10T06:17:08.880Z,18.17
2018-09-10T06:19:37.421Z,18.44
2018-09-10T06:22:06.268Z,18.68
2018-09-10T06:24:34.876Z,18.77
2018-09-10T06:27:03.432Z,18.89
2018-09-10T06:29:31.992Z,19.12
2018-09-10T06:32:00.580Z,19.35
2018-09-10T06:34:29.200Z,19.69
2018-09-10T06:36:57.771Z,20.00
2018-09-10T06:39:26.360Z,20.22
2018-09-10T06:41:54.922Z,20.29
2018-09-10T06:44:23.480Z,20.50
2018-09-10T06:46:52.299Z,20.62
2018-09-10T06:49:20.864Z,20.83
2018-09-10T06:51:49.431Z,20.90
2018-09-10T06:54:18.117Z,20.87
2018-09-10T06:56:46.663Z,20.66
2018-09-10T06:59:15.211Z,20.79
2018-09-10T07:01:43.880Z,20.90
2018-09-10T07:04:12.423Z,20.98
2018-09-10T07:06:40.963Z,21.26
2018-09-10T07:09:10.703Z,21.50
2018-09-10T07:11:39.795Z,21.60
2018-09-10T07:14:08.747Z,21.83
2018-09-10T07:16:37.399Z,22.26
2018-09-10T07:19:06.047Z,22.57
2018-09-10T07:21:34.560Z,22.77
2018-09-10T07:24:03.239Z,23.00
2018-09-10T07:26:31.800Z,23.32
2018-09-10T07:29:00.361Z,23.26
2018-09-10T07:31:28.971Z,23.27
2018-09-10T07:33:57.536Z,23.42
2018-09-10T07:36:26.096Z,23.53
2018-09-10T07:38:54.763Z,23.76
2018-09-10T07:41:23.332Z,24.15
2018-09-10T07:43:52.005Z,24.55
2018-09-10T07:46:21.099Z,25.11
2018-09-10T07:48:49.702Z,25.38
2018-09-10T07:51:18.234Z,25.66
2018-09-10T07:53:46.851Z,26.03
2018-09-10T07:56:15.412Z,26.48
2018-09-10T07:58:44.000Z,26.37
2018-09-10T08:01:12.843Z,26.34
2018-09-10T08:03:41.402Z,26.52
2018-09-10T08:06:09.940Z,26.55
2018-09-10T08:08:38.628Z,26.79
2018-09-10T08:11:07.288Z,26.95
2018-09-10T08:13:35.860Z,27.16
2018-09-10T08:16:04.549Z,27.36
2018-09-10T08:18:33.116Z,27.66
2018-09-10T08:21:01.691Z,27.87
2018-09-10T08:23:30.507Z,28.16
2018-09-10T08:25:59.077Z,28.68
2018-09-10T08:28:27.615Z,28.77
2018-09-10T08:30:56.312Z,28.84
2018-09-10T08:33:24.891Z,29.03
2018-09-10T08:35:53.459Z,29.18
2018-09-10T08:38:22.134Z,29.18
2018-09-10T08:40:50.675Z,29.32
2018-09-10T08:43:19.284Z,29.30
2018-09-10T08:45:48.376Z,29.30
2018-09-10T08:48:16.963Z,29.23
2018-09-10T08:50:45.527Z,29.30
2018-09-10T08:53:14.186Z,29.52
2018-09-10T08:55:42.955Z,29.30
2018-09-10T08:58:11.314Z,29.44
2018-09-10T09:00:39.963Z,29.75
2018-09-10T09:03:08.695Z,29.69
2018-09-10T09:05:37.655Z,30.27
2018-09-10T09:08:06.400Z,30.59
2018-09-10T09:10:34.939Z,30.71
2018-09-10T09:13:03.507Z,31.00
2018-09-10T09:15:32.083Z,31.08
2018-09-10T09:18:00.639Z,31.80
2018-09-10T09:20:29.220Z,32.09
2018-09-10T09:22:57.882Z,32.24
2018-09-10T09:25:26.452Z,32.30
2018-09-10T09:27:54.995Z,32.34
2018-09-10T09:30:23.689Z,32.24
2018-09-10T09:32:52.211Z,32.43
2018-09-10T09:35:25.050Z,32.34
2018-09-10T09:37:58.631Z,31.94
2018-09-10T09:40:32.999Z,31.76
2018-09-10T09:43:06.951Z,32.29
2018-09-10T09:45:41.128Z,32.47
2018-09-10T09:48:09.685Z,32.43
2018-09-10T09:50:38.324Z,32.22
2018-09-10T09:53:06.943Z,32.01
2018-09-10T09:55:35.503Z,31.88
2018-09-10T09:58:04.067Z,32.11
2018-09-10T10:00:38.375Z,32.14
2018-09-10T10:03:12.060Z,32.27
2018-09-10T10:05:40.730Z,32.21
2018-09-10T10:08:09.275Z,33.02
2018-09-10T10:10:37.874Z,33.23
2018-09-10T10:13:06.460Z,33.18
2018-09-10T10:15:35.011Z,32.68
2018-09-10T10:18:03.590Z,32.59
2018-09-10T10:20:32.207Z,32.27
2018-09-10T10:23:00.772Z,32.25
2018-09-10T10:25:29.479Z,32.23
2018-09-10T10:27:58.063Z,32.08
2018-09-10T10:30:26.615Z,32.60
2018-09-10T10:32:55.164Z,33.02
2018-09-10T10:35:24.084Z,33.64
2018-09-10T10:37:52.670Z,34.07
2018-09-10T10:40:21.219Z,34.35
2018-09-10T10:42:49.783Z,34.60
2018-09-10T10:45:18.330Z,34.98
2018-09-10T10:47:46.876Z,35.12
2018-09-10T10:50:15.543Z,35.31
2018-09-10T10:52:44.087Z,35.63
2018-09-10T10:55:12.683Z,35.49
2018-09-10T10:57:41.976Z,35.00
2018-09-10T11:00:10.556Z,34.18
2018-09-10T11:02:39.119Z,34.04
2018-09-10T11:05:07.927Z,33.88
2018-09-10T11:07:36.467Z,33.56
2018-09-10T11:10:05.787Z,33.29
2018-09-10T11:12:34.376Z,32.95
2018-09-10T11:15:02.942Z,32.52
2018-09-10T11:17:31.967Z,32.90
2018-09-10T11:20:00.551Z,33.95
2018-09-10T11:22:29.159Z,35.57
2018-09-10T11:24:57.652Z,36.78
2018-09-10T11:27:26.259Z,37.60
2018-09-10T11:29:54.996Z,37.76
2018-09-10T11:32:23.618Z,37.94
2018-09-10T11:34:52.388Z,38.03
2018-09-10T11:37:20.943Z,37.43
2018-09-10T11:39:49.564Z,36.13
2018-09-10T11:42:18.285Z,35.33
2018-09-10T11:44:46.832Z,34.26
2018-09-10T11:47:15.391Z,33.54
2018-09-10T11:49:44.064Z,33.13
2018-09-10T11:52:12.611Z,33.23
2018-09-10T11:54:41.152Z,33.69
2018-09-10T11:57:09.723Z,34.73
2018-09-10T11:59:38.271Z,34.80
2018-09-10T12:02:08.477Z,34.86
2018-09-10T12:04:37.594Z,34.29
2018-09-10T12:07:06.607Z,33.37
2018-09-10T12:09:35.152Z,33.01
2018-09-10T12:12:03.791Z,32.85
2018-09-10T12:14:32.327Z,32.59
2018-09-10T12:17:00.991Z,32.36
2018-09-10T12:19:29.664Z,32.16
2018-09-10T12:21:58.232Z,31.99
2018-09-10T12:24:26.803Z,31.91
2018-09-10T12:26:55.686Z,31.73
2018-09-10T12:29:24.222Z,31.73
2018-09-10T12:31:52.819Z,31.74
2018-09-10T12:34:21.428Z,31.52
2018-09-10T12:36:56.079Z,31.49
2018-09-10T12:39:24.698Z,31.37
2018-09-10T12:41:53.214Z,31.38
2018-09-10T12:44:21.800Z,31.35
2018-09-10T12:46:50.475Z,31.23
2018-09-10T12:49:19.035Z,31.13
2018-09-10T12:51:47.626Z,31.16
2018-09-10T12:54:16.221Z,31.11
2018-09-10T12:56:44.779Z,31.14
2018-09-10T12:59:13.346Z,31.10
2018-09-10T13:01:41.926Z,31.13
2018-09-10T13:04:10.510Z,31.12
2018-09-10T13:06:39.072Z,31.15
2018-09-10T13:09:08.047Z,30.99
2018-09-10T13:11:36.976Z,30.90
2018-09-10T13:14:05.532Z,30.78
2018-09-10T13:16:34.140Z,30.74
2018-09-10T13:19:02.703Z,30.75
2018-09-10T13:21:31.264Z,30.77
2018-09-10T13:24:00.195Z,30.83
2018-09-10T13:26:29.706Z,30.83
2018-09-10T13:28:58.278Z,30.83
2018-09-10T13:31:27.284Z,30.89
2018-09-10T13:33:55.845Z,30.93
2018-09-10T13:36:24.468Z,30.88
2018-09-10T13:38:53.145Z,30.89
2018-09-10T13:41:21.696Z,30.89
2018-09-10T13:43:50.260Z,30.81
2018-09-10T13:46:18.856Z,30.66
2018-09-10T13:48:47.441Z,30.62
2018-09-10T13:51:15.999Z,30.52
2018-09-10T13:53:44.683Z,30.51
2018-09-10T13:56:13.276Z,30.46
2018-09-10T13:58:41.832Z,30.36
2018-09-10T14:01:10.611Z,30.33
2018-09-10T14:03:39.163Z,30.38
2018-09-10T14:06:07.730Z,30.38
2018-09-10T14:08:36.408Z,30.45
2018-09-10T14:11:05.003Z,30.46
2018-09-10T14:13:33.619Z,30.49
2018-09-10T14:16:02.287Z,30.39
2018-09-10T14:18:30.835Z,30.44
2018-09-10T14:20:59.427Z,30.39
2018-09-10T14:23:28.112Z,30.33
2018-09-10T14:25:56.723Z,30.18
2018-09-10T14:28:25.351Z,30.19
2018-09-10T14:30:53.965Z,30.24
2018-09-10T14:33:22.532Z,30.07
2018-09-10T14:35:51.093Z,30.05
2018-09-10T14:38:19.676Z,29.99
2018-09-10T14:40:48.252Z,30.03
2018-09-10T14:43:16.809Z,30.06
2018-09-10T14:45:45.415Z,30.04
2018-09-10T14:48:13.974Z,30.08
2018-09-10T14:50:42.536Z,30.07
2018-09-10T14:53:11.207Z,30.00
2018-09-10T14:55:39.759Z,30.06
2018-09-10T14:58:08.311Z,30.06
2018-09-10T15:00:36.900Z,30.04
2018-09-10T15:03:05.504Z,30.04
2018-09-10T15:05:34.056Z,30.01
2018-09-10T15:08:02.720Z,29.98
2018-09-10T15:10:31.289Z,29.95
2018-09-10T15:12:59.848Z,29.81
2018-09-10T15:15:28.508Z,29.75
2018-09-10T15:17:57.068Z,29.63
2018-09-10T15:20:25.631Z,29.58
2018-09-10T15:22:54.251Z,29.65
2018-09-10T15:25:22.824Z,29.49
2018-09-10T15:27:51.404Z,29.55
2018-09-10T15:30:20.007Z,29.59
2018-09-10T15:32:48.941Z,29.54
2018-09-10T15:35:17.540Z,29.56
2018-09-10T15:37:46.395Z,29.41
2018-09-10T15:40:15.064Z,29.40
2018-09-10T15:42:43.645Z,29.39
2018-09-10T15:45:12.285Z,29.39
2018-09-10T15:47:40.858Z,29.42
2018-09-10T15:50:09.484Z,29.47
2018-09-10T15:52:38.197Z,29.41
2018-09-10T15:55:06.795Z,29.33
2018-09-10T15:57:35.407Z,29.32
2018-09-10T16:00:04.557Z,29.26
2018-09-10T16:02:33.080Z,29.24
2018-09-10T16:05:01.651Z,29.23
2018-09-10T16:07:30.249Z,29.26
2018-09-10T16:09:59.059Z,29.21
2018-09-10T16:12:27.660Z,29.11
2018-09-10T16:14:56.309Z,29.08
2018-09-10T16:17:24.896Z,28.96
2018-09-10T16:19:53.467Z,28.97
2018-09-10T16:22:22.576Z,28.93
2018-09-10T16:24:51.131Z,28.94
2018-09-10T16:27:19.747Z,28.93
2018-09-10T16:29:48.452Z,28.91
2018-09-10T16:32:17.017Z,28.85
2018-09-10T16:34:45.631Z,28.74
2018-09-10T16:37:14.226Z,28.74
2018-09-10T16:39:42.816Z,28.76
2018-09-10T16:42:11.487Z,28.69
2018-09-10T16:44:40.091Z,28.61
2018-09-10T16:47:08.671Z,28.55
2018-09-10T16:49:37.259Z,28.45
2018-09-10T16:52:05.951Z,28.38
2018-09-10T16:54:34.754Z,28.42
2018-09-10T16:57:03.247Z,28.41
2018-09-10T16:59:31.943Z,28.36
2018-09-10T17:02:00.520Z,28.32
2018-09-10T17:04:29.091Z,28.23
2018-09-10T17:06:57.792Z,28.00
2018-09-10T17:09:26.371Z,27.82
2018-09-10T17:11:54.941Z,27.75
2018-09-10T17:14:23.635Z,27.75
2018-09-10T17:16:52.206Z,27.71
2018-09-10T17:19:20.780Z,27.61
2018-09-10T17:21:49.479Z,27.44
2018-09-10T17:24:18.044Z,27.31
2018-09-10T17:26:46.651Z,27.22
2018-09-10T17:29:15.663Z,27.15
2018-09-10T17:31:44.251Z,27.03
2018-09-10T17:34:12.915Z,27.05
2018-09-10T17:36:41.816Z,26.98
2018-09-10T17:39:10.470Z,26.87
2018-09-10T17:41:39.019Z,26.85
2018-09-10T17:44:07.788Z,26.85
2018-09-10T17:46:36.370Z,26.86
2018-09-10T17:49:04.971Z,26.87
2018-09-10T17:51:34.052Z,26.77
2018-09-10T17:54:02.642Z,26.75
2018-09-10T17:56:31.262Z,26.70
2018-09-10T17:58:59.907Z,26.55
2018-09-10T18:01:28.523Z,26.49
2018-09-10T18:03:57.107Z,26.32
2018-09-10T18:06:26.063Z,26.18
2018-09-10T18:08:54.632Z,26.08
2018-09-10T18:11:23.200Z,25.95
2018-09-10T18:13:52.043Z,25.92
2018-09-10T18:16:20.635Z,25.80
2018-09-10T18:18:49.237Z,25.73
2018-09-10T18:21:17.855Z,25.66
2018-09-10T18:23:46.428Z,25.61
2018-09-10T18:26:15.007Z,25.58
2018-09-10T18:28:43.624Z,25.53
2018-09-10T18:31:12.211Z,25.41
2018-09-10T18:33:40.795Z,25.35
2018-09-10T18:36:09.400Z,25.33
2018-09-10T18:38:37.972Z,25.29
2018-09-10T18:41:06.578Z,25.29
2018-09-10T18:43:35.339Z,25.28
2018-09-10T18:46:04.048Z,25.29
2018-09-10T18:48:32.654Z,25.17
2018-09-10T18:51:01.347Z,25.09
2018-09-10T18:53:29.929Z,25.10
2018-09-10T18:55:58.516Z,25.12
2018-09-10T18:58:27.575Z,25.04
2018-09-10T19:00:56.287Z,25.04
2018-09-10T19:03:24.841Z,24.95
2018-09-10T19:05:53.539Z,24.93
2018-09-10T19:08:22.142Z,25.04
2018-09-10T19:10:50.727Z,25.00
2018-09-10T19:13:19.573Z,24.94
2018-09-10T19:15:48.166Z,24.69
2018-09-10T19:18:17.031Z,24.58
2018-09-10T19:20:45.644Z,24.52
2018-09-10T19:23:14.229Z,24.43
2018-09-10T19:25:42.840Z,24.35
2018-09-10T19:28:11.532Z,24.26
2018-09-10T19:30:40.112Z,24.19
2018-09-10T19:33:08.726Z,24.10
2018-09-10T19:35:37.403Z,23.99
2018-09-10T19:38:05.986Z,23.88
2018-09-10T19:40:34.574Z,23.80
2018-09-10T19:43:03.267Z,23.71
2018-09-10T19:45:31.848Z,23.66
2018-09-10T19:48:00.440Z,23.58
2018-09-10T19:50:29.456Z,23.50
2018-09-10T19:52:58.036Z,23.44
2018-09-10T19:55:26.650Z,23.33
2018-09-10T19:57:55.476Z,23.25
2018-09-10T20:00:24.072Z,23.15
2018-09-10T20:02:52.648Z,23.10
2018-09-10T20:05:21.625Z,23.01
2018-09-10T20:07:50.212Z,22.93
2018-09-10T20:10:18.796Z,22.88
2018-09-10T20:12:47.862Z,22.82
2018-09-10T20:15:16.524Z,22.74
2018-09-10T20:17:45.061Z,22.68
2018-09-10T20:20:13.772Z,22.61
2018-09-10T20:22:42.327Z,22.56
2018-09-10T20:25:10.908Z,22.55
2018-09-10T20:27:39.620Z,22.47
2018-09-10T20:30:08.331Z,22.44
2018-09-10T20:32:36.904Z,22.43
2018-09-10T20:35:05.983Z,22.37
2018-09-10T20:37:34.583Z,22.33
2018-09-10T20:40:03.279Z,22.35
2018-09-10T20:42:31.975Z,22.35
2018-09-10T20:45:00.559Z,22.33
2018-09-10T20:47:29.147Z,22.34
2018-09-10T20:49:57.818Z,22.34
2018-09-10T20:52:26.441Z,22.37
2018-09-10T20:54:55.007Z,22.35
2018-09-10T20:57:23.608Z,22.36
2018-09-10T20:59:52.176Z,22.33
2018-09-10T21:02:21.048Z,22.31
2018-09-10T21:04:49.643Z,22.29
2018-09-10T21:07:18.208Z,22.29
2018-09-10T21:09:46.788Z,22.29
2018-09-10T21:12:15.516Z,22.24
2018-09-10T21:14:44.075Z,22.24
2018-09-10T21:17:12.648Z,22.23
2018-09-10T21:19:41.562Z,22.33
2018-09-10T21:22:10.151Z,22.45
2018-09-10T21:24:38.748Z,22.43
2018-09-10T21:27:07.448Z,22.36
2018-09-10T21:29:36.031Z,22.36
2018-09-10T21:32:04.609Z,22.38
2018-09-10T21:34:33.259Z,22.35
2018-09-10T21:37:01.900Z,22.28
2018-09-10T21:39:30.474Z,22.20
2018-09-10T21:41:59.167Z,22.11
2018-09-10T21:44:27.719Z,22.08
2018-09-10T21:46:56.314Z,21.95
2018-09-10T21:49:25.191Z,21.93
2018-09-10T21:51:53.844Z,21.91
2018-09-10T21:54:22.507Z,21.93
2018-09-10T21:56:51.595Z,21.89
2018-09-10T21:59:20.518Z,21.87
2018-09-10T22:01:49.083Z,21.84
2018-09-10T22:04:17.779Z,21.83
2018-09-10T22:06:46.331Z,21.82
2018-09-10T22:09:14.891Z,21.80
2018-09-10T22:11:48.728Z,21.77
2018-09-10T22:14:17.338Z,21.75
2018-09-10T22:16:45.899Z,21.72
2018-09-10T22:19:14.491Z,21.69
2018-09-10T22:21:43.504Z,21.66
2018-09-10T22:24:12.057Z,21.63
2018-09-10T22:26:40.776Z,21.44
2018-09-10T22:29:09.355Z,21.43
2018-09-10T22:31:37.911Z,21.42
2018-09-10T22:34:07.047Z,21.43
2018-09-10T22:36:35.632Z,21.42
2018-09-10T22:39:04.972Z,21.42
2018-09-10T22:41:33.574Z,21.44
2018-09-10T22:44:02.140Z,21.43
2018-09-10T22:46:30.811Z,21.37
2018-09-10T22:48:59.351Z,21.26
2018-09-10T22:51:27.896Z,21.21
2018-09-10T22:53:56.872Z,21.17
2018-09-10T22:56:25.424Z,21.10
2018-09-10T22:58:54.051Z,21.05
2018-09-10T23:01:22.772Z,20.97
2018-09-10T23:03:51.800Z,20.88
2018-09-10T23:06:20.359Z,20.90
2018-09-10T23:08:49.485Z,21.02
2018-09-10T23:11:18.027Z,21.06
2018-09-10T23:13:46.603Z,20.87
2018-09-10T23:16:15.172Z,20.84
2018-09-10T23:18:43.825Z,20.84
2018-09-10T23:21:12.374Z,20.82
2018-09-10T23:23:41.115Z,20.81
2018-09-10T23:26:09.744Z,20.75
2018-09-10T23:28:38.380Z,20.76
2018-09-10T23:31:08.211Z,20.76
2018-09-10T23:33:37.267Z,20.70
2018-09-10T23:36:05.815Z,20.51
2018-09-10T23:38:34.463Z,20.37
2018-09-10T23:41:02.995Z,20.25
2018-09-10T23:43:31.539Z,20.12
2018-09-10T23:46:00.367Z,20.02
2018-09-10T23:48:28.915Z,20.01
2018-09-10T23:50:57.575Z,19.97
2018-09-10T23:53:26.583Z,19.95
2018-09-10T23:55:55.583Z,19.92
2018-09-10T23:58:24.123Z,19.89
